createdAt,value
2019-05-12T00:01:25.181Z,96690.96
2019-05-12T00:03:52.231Z,96701.67
2019-05-12T00:06:19.506Z,96695.79
2019-05-12T00:08:48.740Z,96691.84
2019-05-12T00:11:17.829Z,96695.09
2019-05-12T00:13:45.146Z,96697.75
2019-05-12T00:16:12.138Z,96696.39
2019-05-12T00:18:39.353Z,96700.69
2019-05-12T00:21:08.634Z,96701.47
2019-05-12T00:23:38.185Z,96690.54
2019-05-12T00:26:07.836Z,96689.89
2019-05-12T00:28:34.823Z,96695.09
2019-05-12T00:31:01.925Z,96694.94
2019-05-12T00:33:29.157Z,96699.98
2019-05-12T00:35:58.577Z,96698.17
2019-05-12T00:38:25.308Z,96692.50
2019-05-12T00:40:52.261Z,96692.28
2019-05-12T00:43:19.507Z,96697.39
2019-05-12T00:45:48.242Z,96694.09
2019-05-12T00:48:17.887Z,96697.86
2019-05-12T00:50:44.905Z,96691.83
2019-05-12T00:53:12.227Z,96692.94
2019-05-12T00:55:39.601Z,96691.76
2019-05-12T00:58:08.189Z,96699.20
2019-05-12T01:00:39.946Z,96701.25
2019-05-12T01:03:08.393Z,96705.34
2019-05-12T01:05:35.111Z,96703.19
2019-05-12T01:08:02.319Z,96697.09
2019-05-12T01:10:29.394Z,96697.66
2019-05-12T01:12:58.099Z,96695.06
2019-05-12T01:15:28.341Z,96702.56
2019-05-12T01:17:55.271Z,96700.22
2019-05-12T01:20:22.381Z,96695.02
2019-05-12T01:22:50.599Z,96697.31
2019-05-12T01:25:17.787Z,96702.31
2019-05-12T01:27:44.979Z,96705.39
2019-05-12T01:30:13.836Z,96713.91
2019-05-12T01:32:41.395Z,96708.50
2019-05-12T01:35:11.814Z,96710.70
2019-05-12T01:37:38.813Z,96705.38
2019-05-12T01:40:09.051Z,96701.29
2019-05-12T01:42:38.231Z,96707.20
2019-05-12T01:45:09.361Z,96696.80
2019-05-12T01:47:38.232Z,96706.08
2019-05-12T01:50:09.137Z,96714.02
2019-05-12T01:52:38.695Z,96723.77
2019-05-12T01:55:08.322Z,96725.84
2019-05-12T01:57:38.481Z,96729.03
2019-05-12T02:00:10.031Z,96728.16
2019-05-12T02:02:38.660Z,96704.38
2019-05-12T02:05:08.590Z,96723.85
2019-05-12T02:07:48.133Z,96722.64
2019-05-12T02:10:18.134Z,96719.80
2019-05-12T02:12:48.779Z,96719.80
2019-05-12T02:15:18.293Z,96723.20
2019-05-12T02:17:47.956Z,96723.20
2019-05-12T02:20:18.106Z,96717.12
2019-05-12T02:22:47.728Z,96741.13
2019-05-12T02:25:18.292Z,96744.53
2019-05-12T02:27:44.939Z,96748.72
2019-05-12T02:30:13.473Z,96747.93
2019-05-12T02:32:52.238Z,96746.23
2019-05-12T02:35:10.224Z,96740.67
2019-05-12T02:37:37.771Z,96740.67
2019-05-12T02:40:08.954Z,96764.81
2019-05-12T02:42:35.993Z,96764.81
2019-05-12T02:45:06.743Z,96759.29
2019-05-12T02:47:34.670Z,96763.56
2019-05-12T02:50:05.703Z,96766.17
2019-05-12T02:52:34.708Z,96767.09
2019-05-12T02:55:05.903Z,96775.23
2019-05-12T02:57:34.334Z,96771.60
2019-05-12T03:00:05.429Z,96770.44
2019-05-12T03:02:34.819Z,96773.87
2019-05-12T03:05:05.559Z,96773.75
2019-05-12T03:07:34.618Z,96777.18
2019-05-12T03:10:05.208Z,96777.18
2019-05-12T03:12:34.432Z,96776.61
2019-05-12T03:15:01.517Z,96765.30
2019-05-12T03:17:28.549Z,96775.70
2019-05-12T03:19:55.795Z,96788.07
2019-05-12T03:22:25.229Z,96791.38
2019-05-12T03:25:07.775Z,96795.79
2019-05-12T03:27:25.290Z,96803.16
2019-05-12T03:29:51.295Z,96809.28
2019-05-12T03:32:18.318Z,96791.05
2019-05-12T03:34:47.369Z,96781.97
2019-05-12T03:37:17.969Z,96813.68
2019-05-12T03:39:44.737Z,96813.68
2019-05-12T03:42:14.566Z,96817.17
2019-05-12T03:44:44.351Z,96817.86
2019-05-12T03:47:09.830Z,96829.17
2019-05-12T03:49:37.056Z,96806.73
2019-05-12T03:52:05.087Z,96806.73
2019-05-12T03:54:34.895Z,96835.39
2019-05-12T03:57:04.530Z,96835.51
2019-05-12T03:59:30.754Z,96841.64
2019-05-12T04:01:58.272Z,96840.13
2019-05-12T04:04:25.425Z,96836.62
2019-05-12T04:06:54.411Z,96843.88
2019-05-12T04:09:24.402Z,96845.22
2019-05-12T04:11:51.175Z,96846.78
2019-05-12T04:14:18.349Z,96844.51
2019-05-12T04:16:45.577Z,96855.41
2019-05-12T04:19:14.630Z,96856.99
2019-05-12T04:21:44.663Z,96844.73
2019-05-12T04:24:14.075Z,96853.13
2019-05-12T04:26:39.943Z,96851.29
2019-05-12T04:29:07.140Z,96858.33
2019-05-12T04:31:35.342Z,96856.00
2019-05-12T04:34:05.171Z,96865.34
2019-05-12T04:36:31.772Z,96873.34
2019-05-12T04:38:59.072Z,96876.47
2019-05-12T04:41:26.391Z,96878.28
2019-05-12T04:43:55.108Z,96890.29
2019-05-12T04:46:25.260Z,96888.46
2019-05-12T04:48:54.582Z,96897.28
2019-05-12T04:51:21.025Z,96894.79
2019-05-12T04:53:48.165Z,96904.66
2019-05-12T04:56:20.630Z,96900.88
2019-05-12T04:58:45.827Z,96900.19
2019-05-12T05:01:15.518Z,96903.14
2019-05-12T05:03:44.331Z,96909.02
2019-05-12T05:06:14.529Z,96905.32
2019-05-12T05:08:43.892Z,96909.77
2019-05-12T05:11:10.023Z,96907.66
2019-05-12T05:13:39.806Z,96907.59
2019-05-12T05:16:07.347Z,96911.50
2019-05-12T05:18:34.556Z,96915.41
2019-05-12T05:21:01.824Z,96914.94
2019-05-12T05:23:28.880Z,96909.20
2019-05-12T05:25:56.126Z,96924.53
2019-05-12T05:28:23.623Z,96924.38
2019-05-12T05:30:50.875Z,96927.48
2019-05-12T05:33:19.917Z,96929.83
2019-05-12T05:35:46.926Z,96932.00
2019-05-12T05:38:20.576Z,96927.55
2019-05-12T05:40:44.202Z,96940.95
2019-05-12T05:43:13.082Z,96944.19
2019-05-12T05:45:40.743Z,96949.72
2019-05-12T05:48:10.082Z,96942.98
2019-05-12T05:50:36.787Z,96946.51
2019-05-12T05:53:04.283Z,96948.23
2019-05-12T05:55:34.363Z,96952.89
2019-05-12T05:58:07.894Z,96956.77
2019-05-12T06:00:30.500Z,96967.70
2019-05-12T06:02:57.659Z,96971.38
2019-05-12T06:13:54.873Z,96972.30
2019-05-12T06:16:24.933Z,96963.66
2019-05-12T06:18:50.860Z,96967.47
2019-05-12T06:21:18.216Z,96968.58
2019-05-12T06:23:45.290Z,96961.25
2019-05-12T06:26:14.061Z,96972.27
2019-05-12T06:28:41.894Z,96976.59
2019-05-12T06:31:11.095Z,96981.39
2019-05-12T06:33:38.091Z,96992.44
2019-05-12T06:36:07.463Z,96986.69
2019-05-12T06:38:37.184Z,96985.45
2019-05-12T06:41:05.424Z,96985.03
2019-05-12T06:43:36.795Z,96990.05
2019-05-12T06:46:03.528Z,96990.69
2019-05-12T06:48:30.524Z,96987.70
2019-05-12T06:50:57.849Z,96992.41
2019-05-12T06:53:28.978Z,96998.77
2019-05-12T06:55:54.078Z,96998.28
2019-05-12T06:58:26.751Z,97000.69
2019-05-12T07:00:50.222Z,96998.32
2019-05-12T07:03:19.586Z,96999.75
2019-05-12T07:05:46.181Z,96999.89
2019-05-12T07:08:19.988Z,97007.19
2019-05-12T07:10:45.920Z,97002.13
2019-05-12T07:13:14.664Z,97006.90
2019-05-12T07:15:40.765Z,97007.50
2019-05-12T07:18:14.023Z,97015.32
2019-05-12T07:20:43.582Z,97016.11
2019-05-12T07:23:10.547Z,97018.45
2019-05-12T07:25:38.495Z,97019.52
2019-05-12T07:28:07.992Z,97015.34
2019-05-12T07:30:35.455Z,97018.27
2019-05-12T07:33:04.433Z,97012.75
2019-05-12T07:35:33.797Z,97014.42
2019-05-12T07:38:01.229Z,97023.16
2019-05-12T07:40:30.022Z,97019.38
2019-05-12T07:42:58.179Z,97018.33
2019-05-12T07:45:26.731Z,97025.36
2019-05-12T07:47:54.185Z,97025.62
2019-05-12T07:50:26.931Z,97036.03
2019-05-12T07:52:50.544Z,97034.52
2019-05-12T07:55:17.579Z,97038.89
2019-05-12T07:57:52.898Z,97041.44
2019-05-12T08:00:21.304Z,97044.34
2019-05-12T08:02:44.543Z,97045.86
2019-05-12T08:05:19.459Z,97052.05
2019-05-12T08:07:41.358Z,97048.39
2019-05-12T08:10:15.909Z,97048.46
2019-05-12T08:12:38.054Z,97051.87
2019-05-12T08:15:09.660Z,97047.02
2019-05-12T08:17:35.195Z,97049.48
2019-05-12T08:20:04.573Z,97047.92
2019-05-12T08:22:31.952Z,97051.64
2019-05-12T08:24:58.893Z,97057.40
2019-05-12T08:27:25.832Z,97062.45
2019-05-12T08:30:01.274Z,97061.06
2019-05-12T08:32:23.473Z,97054.02
2019-05-12T08:34:50.708Z,97062.80
2019-05-12T08:37:17.818Z,97069.03
2019-05-12T08:39:44.848Z,97074.66
2019-05-12T08:42:14.371Z,97078.50
2019-05-12T08:44:40.951Z,97078.23
2019-05-12T08:47:08.021Z,97073.58
2019-05-12T08:49:50.369Z,97073.06
2019-05-12T08:52:04.091Z,97080.30
2019-05-12T08:54:33.548Z,97085.73
2019-05-12T08:57:01.257Z,97084.86
2019-05-12T08:59:29.127Z,97094.38
2019-05-12T09:02:00.612Z,97093.39
2019-05-12T09:04:24.956Z,97100.86
2019-05-12T09:06:58.222Z,97102.03
2019-05-12T09:09:23.278Z,97105.52
2019-05-12T09:11:50.494Z,97108.57
2019-05-12T09:14:17.741Z,97112.96
2019-05-12T09:16:44.766Z,97115.02
2019-05-12T09:19:16.668Z,97126.49
2019-05-12T09:21:41.146Z,97125.56
2019-05-12T09:24:13.674Z,97120.30
2019-05-12T09:26:37.654Z,97128.64
2019-05-12T09:29:07.335Z,97135.20
2019-05-12T09:31:33.881Z,97131.81
2019-05-12T09:34:03.498Z,97141.16
2019-05-12T09:36:30.542Z,97143.63
2019-05-12T09:39:01.507Z,97143.25
2019-05-12T09:41:26.543Z,97154.30
2019-05-12T09:43:53.831Z,97150.38
2019-05-12T09:46:23.174Z,97145.06
2019-05-12T09:48:52.415Z,97148.45
2019-05-12T09:51:18.871Z,97161.45
2019-05-12T09:53:50.856Z,97159.77
2019-05-12T09:56:14.707Z,97162.81
2019-05-12T09:58:43.578Z,97162.34
2019-05-12T10:01:10.929Z,97173.41
2019-05-12T10:03:40.000Z,97168.11
2019-05-12T10:06:11.489Z,97171.19
2019-05-12T10:08:37.999Z,97178.01
2019-05-12T10:11:05.191Z,97180.09
2019-05-12T10:13:32.054Z,97179.84
2019-05-12T10:16:07.385Z,97185.91
2019-05-12T10:18:27.947Z,97176.98
2019-05-12T10:20:55.271Z,97181.97
2019-05-12T10:23:26.700Z,97187.42
2019-05-12T10:25:51.027Z,97195.40
2019-05-12T10:28:18.382Z,97202.77
2019-05-12T10:30:47.261Z,97204.09
2019-05-12T10:33:14.663Z,97205.52
2019-05-12T10:35:43.700Z,97219.73
2019-05-12T10:38:11.031Z,97211.82
2019-05-12T10:40:38.597Z,97218.89
2019-05-12T10:43:05.976Z,97224.75
2019-05-12T10:45:34.318Z,97230.11
2019-05-12T10:48:03.764Z,97234.77
2019-05-12T10:50:30.852Z,97242.63
2019-05-12T10:52:57.743Z,97241.48
2019-05-12T10:55:24.781Z,97240.80
2019-05-12T10:58:00.989Z,97240.50
2019-05-12T11:00:25.120Z,97240.34
2019-05-12T11:02:53.373Z,97255.47
2019-05-12T11:05:22.972Z,97261.42
2019-05-12T11:07:48.741Z,97261.00
2019-05-12T11:10:19.858Z,97262.97
2019-05-12T11:12:44.859Z,97269.97
2019-05-12T11:15:13.660Z,97272.96
2019-05-12T11:17:49.980Z,97287.81
2019-05-12T11:20:17.367Z,97293.56
2019-05-12T11:22:44.287Z,97303.41
2019-05-12T11:25:11.443Z,97309.34
2019-05-12T11:27:38.583Z,97316.46
2019-05-12T11:30:06.000Z,97320.38
2019-05-12T11:32:34.923Z,97314.12
2019-05-12T11:35:03.958Z,97322.95
2019-05-12T11:37:30.796Z,97321.84
2019-05-12T11:39:57.961Z,97336.20
2019-05-12T11:42:25.156Z,97344.10
2019-05-12T11:44:53.112Z,97352.91
2019-05-12T11:47:24.068Z,97361.91
2019-05-12T11:49:49.193Z,97369.56
2019-05-12T11:52:19.256Z,97368.00
2019-05-12T11:54:49.149Z,97377.02
2019-05-12T11:57:14.149Z,97382.84
2019-05-12T11:59:44.666Z,97402.42
2019-05-12T12:02:13.349Z,97409.50
2019-05-12T12:04:45.799Z,97414.98
2019-05-12T12:07:16.455Z,97423.16
2019-05-12T12:09:43.944Z,97427.73
2019-05-12T12:12:13.532Z,97423.65
2019-05-12T12:14:46.244Z,97431.85
2019-05-12T12:17:09.574Z,97436.23
2019-05-12T12:19:43.682Z,97438.17
2019-05-12T12:22:05.725Z,97434.08
2019-05-12T12:24:33.465Z,97436.14
2019-05-12T12:27:00.616Z,97434.88
2019-05-12T12:29:27.973Z,97441.57
2019-05-12T12:31:55.895Z,97446.13
2019-05-12T12:34:29.370Z,97449.76
2019-05-12T12:36:54.296Z,97453.42
2019-05-12T12:39:23.628Z,97452.02
2019-05-12T12:41:58.416Z,97457.14
2019-05-12T12:44:19.880Z,97458.14
2019-05-12T12:46:51.269Z,97460.77
2019-05-12T12:49:15.498Z,97457.01
2019-05-12T12:51:43.511Z,97457.11
2019-05-12T12:54:11.040Z,97461.33
2019-05-12T12:56:38.288Z,97463.36
2019-05-12T12:59:10.359Z,97473.59
2019-05-12T13:01:35.747Z,97461.52
2019-05-12T13:04:04.610Z,97463.20
2019-05-12T13:06:34.388Z,97460.38
2019-05-12T13:09:00.753Z,97460.80
2019-05-12T13:11:33.242Z,97467.14
2019-05-12T13:13:56.701Z,97479.95
2019-05-12T13:16:23.883Z,97486.52
2019-05-12T13:18:53.508Z,97489.08
2019-05-12T13:21:20.726Z,97482.90
2019-05-12T13:23:50.836Z,97487.88
2019-05-12T13:26:16.751Z,97493.28
2019-05-12T13:28:47.511Z,97505.51
2019-05-12T13:31:15.773Z,97508.52
2019-05-12T13:33:41.668Z,97514.17
2019-05-12T13:36:08.848Z,97516.98
2019-05-12T13:38:40.307Z,97523.52
2019-05-12T13:41:09.636Z,97525.05
2019-05-12T13:43:34.157Z,97531.63
2019-05-12T13:46:01.342Z,97532.59
2019-05-12T13:48:28.413Z,97536.79
2019-05-12T13:51:07.393Z,97530.87
2019-05-12T13:53:24.548Z,97544.24
2019-05-12T13:55:51.564Z,97546.73
2019-05-12T13:58:18.972Z,97558.05
2019-05-12T14:00:50.786Z,97553.09
2019-05-12T14:03:15.069Z,97550.19
2019-05-12T14:05:50.494Z,97556.35
2019-05-12T14:08:11.174Z,97559.83
2019-05-12T14:10:46.950Z,97564.34
2019-05-12T14:13:06.861Z,97563.61
2019-05-12T14:15:34.164Z,97564.73
2019-05-12T14:18:03.280Z,97569.05
2019-05-12T14:20:30.142Z,97566.89
2019-05-12T14:22:57.358Z,97571.53
2019-05-12T14:25:29.868Z,97558.75
2019-05-12T14:27:53.694Z,97581.62
2019-05-12T14:30:21.323Z,97563.41
2019-05-12T14:32:49.338Z,97591.08
2019-05-12T14:35:17.232Z,97591.08
2019-05-12T14:37:45.994Z,97600.36
2019-05-12T14:40:13.959Z,97599.00
2019-05-12T14:42:40.971Z,97599.00
2019-05-12T14:45:08.252Z,97605.73
2019-05-12T14:47:35.304Z,97613.09
2019-05-12T14:50:04.263Z,97610.93
2019-05-12T14:52:33.174Z,97606.79
2019-05-12T14:55:00.023Z,97613.41
2019-05-12T14:57:29.535Z,97612.05
2019-05-12T14:59:56.315Z,97620.44
2019-05-12T15:02:27.707Z,97620.44
2019-05-12T15:04:54.278Z,97616.84
2019-05-12T15:07:23.631Z,97621.13
2019-05-12T15:09:55.764Z,97598.28
2019-05-12T15:12:19.717Z,97618.52
2019-05-12T15:14:46.846Z,97619.31
2019-05-12T15:19:44.054Z,97621.94
2019-05-12T15:22:12.420Z,97621.86
2019-05-12T15:24:40.184Z,97625.63
2019-05-12T15:27:07.202Z,97619.30
2019-05-12T15:29:34.253Z,97625.44
2019-05-12T15:32:03.731Z,97625.05
2019-05-12T15:34:30.582Z,97630.55
2019-05-12T15:37:00.179Z,97633.75
2019-05-12T15:39:27.032Z,97640.00
2019-05-12T15:41:56.623Z,97633.96
2019-05-12T15:44:31.176Z,97638.52
2019-05-12T15:46:53.561Z,97645.09
2019-05-12T15:49:20.770Z,97653.25
2019-05-12T15:51:54.221Z,97652.62
2019-05-12T15:54:16.708Z,97654.06
2019-05-12T15:56:43.896Z,97659.05
2019-05-12T15:59:10.770Z,97654.80
2019-05-12T16:01:38.167Z,97670.33
2019-05-12T16:04:05.288Z,97660.25
2019-05-12T16:06:32.548Z,97667.69
2019-05-12T16:08:59.554Z,97667.69
2019-05-12T16:11:26.609Z,97675.22
2019-05-12T16:13:59.028Z,97658.04
2019-05-12T16:16:24.652Z,97658.04
2019-05-12T16:18:54.955Z,97675.41
2019-05-12T16:21:22.304Z,97680.36
2019-05-12T16:23:49.618Z,97677.16
2019-05-12T16:26:17.121Z,97683.47
2019-05-12T16:28:44.245Z,97679.33
2019-05-12T16:31:14.454Z,97679.33
2019-05-12T16:33:43.634Z,97685.09
2019-05-12T16:36:13.778Z,97683.83
2019-05-12T16:38:39.924Z,97664.16
2019-05-12T16:41:06.829Z,97692.38
2019-05-12T16:43:34.953Z,97699.29
2019-05-12T16:46:04.421Z,97703.61
2019-05-12T16:48:33.959Z,97703.61
2019-05-12T16:51:00.317Z,97694.09
2019-05-12T16:53:28.073Z,97694.09
2019-05-12T16:55:55.674Z,97713.45
2019-05-12T16:58:24.462Z,97725.37
2019-05-12T17:00:53.422Z,97725.37
2019-05-12T17:03:23.539Z,97724.63
2019-05-12T17:05:55.296Z,97721.67
2019-05-12T17:08:18.918Z,97723.83
2019-05-12T17:10:49.146Z,97733.42
2019-05-12T17:13:16.069Z,97737.91
2019-05-12T17:15:43.455Z,97743.51
2019-05-12T17:18:10.371Z,97743.82
2019-05-12T17:20:40.934Z,97746.61
2019-05-12T17:23:06.249Z,97744.30
2019-05-12T17:25:34.398Z,97750.42
2019-05-12T17:28:03.614Z,97745.70
2019-05-12T17:30:31.375Z,97758.70
2019-05-12T17:33:01.802Z,97761.58
2019-05-12T17:35:31.620Z,97766.28
2019-05-12T17:37:56.455Z,97768.28
2019-05-12T17:40:24.227Z,97775.94
2019-05-12T17:42:57.531Z,97781.93
2019-05-12T17:45:20.802Z,97786.31
2019-05-12T17:47:48.096Z,97794.77
2019-05-12T17:50:15.906Z,97796.44
2019-05-12T17:52:45.164Z,97800.86
2019-05-12T17:55:14.593Z,97802.27
2019-05-12T17:57:43.817Z,97807.70
2019-05-12T18:00:14.128Z,97814.50
2019-05-12T18:02:43.635Z,97816.36
2019-05-12T18:05:14.722Z,97822.65
2019-05-12T18:07:39.351Z,97832.22
2019-05-12T18:10:06.661Z,97832.06
2019-05-12T18:12:39.380Z,97838.41
2019-05-12T18:15:04.910Z,97846.95
2019-05-12T18:17:33.763Z,97851.58
2019-05-12T18:20:03.911Z,97855.95
2019-05-12T18:22:30.439Z,97861.45
2019-05-12T18:25:08.622Z,97866.41
2019-05-12T18:27:44.446Z,97876.22
2019-05-12T18:30:06.038Z,97876.52
2019-05-12T18:32:33.023Z,97882.34
2019-05-12T18:35:00.746Z,97885.66
2019-05-12T18:37:27.785Z,97891.45
2019-05-12T18:39:54.891Z,97887.46
2019-05-12T18:42:24.501Z,97890.75
2019-05-12T18:44:54.459Z,97897.54
2019-05-12T18:47:23.333Z,97892.96
2019-05-12T18:49:50.190Z,97897.62
2019-05-12T18:52:17.565Z,97899.28
2019-05-12T18:54:52.303Z,97906.37
2019-05-12T18:57:13.919Z,97901.23
2019-05-12T18:59:46.187Z,97904.00
2019-05-12T19:02:14.580Z,97902.64
2019-05-12T19:04:39.616Z,97907.86
2019-05-12T19:07:08.556Z,97911.67
2019-05-12T19:09:35.584Z,97908.96
2019-05-12T19:12:03.304Z,97917.70
2019-05-12T19:14:36.876Z,97912.02
2019-05-12T19:17:00.029Z,97916.91
2019-05-12T19:19:27.997Z,97919.36
2019-05-12T19:22:04.777Z,97919.44
2019-05-12T19:24:24.248Z,97916.73
2019-05-12T19:26:51.162Z,97922.45
2019-05-12T19:29:18.584Z,97922.71
2019-05-12T19:31:52.741Z,97917.83
2019-05-12T19:34:22.294Z,97915.17
2019-05-12T19:36:49.254Z,97923.31
2019-05-12T19:39:13.640Z,97924.97
2019-05-12T19:41:43.468Z,97931.75
2019-05-12T19:44:10.188Z,97923.11
2019-05-12T19:46:39.804Z,97932.68
2019-05-12T19:49:06.142Z,97930.02
2019-05-12T19:51:34.543Z,97940.32
2019-05-12T19:54:03.482Z,97943.03
2019-05-12T19:56:35.822Z,97945.20
2019-05-12T19:58:59.610Z,97953.09
2019-05-12T20:01:32.743Z,97947.15
2019-05-12T20:03:58.211Z,97938.03
2019-05-12T20:06:25.537Z,97938.38
2019-05-12T20:09:05.090Z,97939.25
2019-05-12T20:11:26.508Z,97944.67
2019-05-12T20:13:50.567Z,97949.55
2019-05-12T20:16:21.940Z,97944.34
2019-05-12T20:18:49.199Z,97943.58
2019-05-12T20:21:20.509Z,97947.64
2019-05-12T20:23:44.753Z,97949.22
2019-05-12T20:26:14.380Z,97947.06
2019-05-12T20:28:43.696Z,97945.78
2019-05-12T20:31:10.776Z,97946.29
2019-05-12T20:33:37.916Z,97947.39
2019-05-12T20:36:06.802Z,97947.14
2019-05-12T20:38:37.735Z,97949.34
2019-05-12T20:41:05.390Z,97948.28
2019-05-12T20:43:35.726Z,97950.19
2019-05-12T20:46:03.626Z,97944.77
2019-05-12T20:48:31.253Z,97947.55
2019-05-12T20:50:58.601Z,97949.76
2019-05-12T20:53:31.760Z,97946.80
2019-05-12T20:55:54.922Z,97948.70
2019-05-12T20:58:28.600Z,97947.72
2019-05-12T21:00:50.690Z,97947.45
2019-05-12T21:03:17.807Z,97949.11
2019-05-12T21:05:44.914Z,97946.95
2019-05-12T21:08:14.983Z,97948.05
2019-05-12T21:10:40.827Z,97943.22
2019-05-12T21:13:08.022Z,97946.73
2019-05-12T21:15:42.773Z,97948.64
2019-05-12T21:18:07.423Z,97953.30
2019-05-12T21:20:34.643Z,97951.13
2019-05-12T21:23:01.497Z,97951.36
2019-05-12T21:25:28.628Z,97948.64
2019-05-12T21:28:02.412Z,97950.81
2019-05-12T21:30:25.053Z,97957.30
2019-05-12T21:32:56.517Z,97958.65
2019-05-12T21:35:22.682Z,97956.48
2019-05-12T21:37:49.670Z,97955.68
2019-05-12T21:40:22.351Z,97956.78
2019-05-12T21:42:45.609Z,97958.72
2019-05-12T21:45:14.619Z,97968.14
2019-05-12T21:47:42.974Z,97971.16
2019-05-12T21:50:10.875Z,97980.17
2019-05-12T21:52:39.370Z,97976.39
2019-05-12T21:55:13.576Z,97982.12
2019-05-12T21:57:35.807Z,97981.35
2019-05-12T22:00:28.529Z,97976.80
2019-05-12T22:02:56.525Z,97982.78
2019-05-12T22:05:47.117Z,97985.23
2019-05-12T22:07:53.187Z,97980.11
2019-05-12T22:10:25.543Z,97982.02
2019-05-12T22:12:49.346Z,97985.02
2019-05-12T22:15:21.324Z,97984.21
2019-05-12T22:18:04.229Z,97988.05
2019-05-12T22:20:32.537Z,97984.02
2019-05-12T22:23:06.992Z,97983.52
2019-05-12T22:25:30.162Z,97987.33
2019-05-12T22:27:59.120Z,97984.91
2019-05-12T22:30:27.880Z,97983.88
2019-05-12T22:32:59.391Z,97985.23
2019-05-12T22:35:25.257Z,97981.20
2019-05-12T22:37:53.525Z,97986.37
2019-05-12T22:40:21.003Z,97978.82
2019-05-12T22:42:50.708Z,97988.09
2019-05-12T22:45:17.235Z,97985.96
2019-05-12T22:47:49.331Z,97990.33
2019-05-12T22:50:14.286Z,97984.39
2019-05-12T22:52:47.259Z,97996.03
2019-05-12T22:55:13.823Z,98004.69
2019-05-12T22:57:40.827Z,98012.30
2019-05-12T23:00:13.503Z,98011.82
2019-05-12T23:02:44.179Z,98022.15
2019-05-12T23:05:10.229Z,98018.92
2019-05-12T23:07:37.994Z,98022.19
2019-05-12T23:10:06.928Z,98022.73
2019-05-12T23:12:34.889Z,98024.34
2019-05-12T23:15:07.198Z,98022.70
2019-05-12T23:17:39.011Z,98021.89
2019-05-12T23:20:05.631Z,98017.83
2019-05-12T23:22:35.144Z,98021.64
2019-05-12T23:25:05.398Z,98017.83
2019-05-12T23:27:33.414Z,98017.28
2019-05-12T23:30:10.981Z,98021.89
2019-05-12T23:32:29.629Z,98025.41
2019-05-12T23:34:58.647Z,98022.99
2019-05-12T23:37:30.226Z,98029.77
2019-05-12T23:39:55.733Z,98025.70
2019-05-12T23:42:23.746Z,98030.61
2019-05-12T23:44:52.619Z,98033.87
2019-05-12T23:47:20.084Z,98034.94
2019-05-12T23:49:47.910Z,98028.41
2019-05-12T23:52:14.881Z,98032.22
2019-05-12T23:54:44.302Z,98034.38
2019-05-12T23:57:13.036Z,98028.41
2019-05-12T23:59:39.428Z,98036.29
